Clinton, Canada
Current Conditions -  °F | °C
As of 3:00 PM on Monday 26 Jan 2015 (Local Time) from CYXU Reporting Station
Broken Clouds Broken Clouds  
Wind Chill:   Ceiling: 2500
Heat Index: 19°   Visibility: 15mi
Dew Point: 10°   Wind: 20mph
Humidity: 68%   Direction: 70°ENE
Pressure: 29.87"   Gusts: NA
Location:  43.6°N, 81.53°W
Report Text: CYXU 262000Z 07017KT 15SM FEW020 BKN025 BKN250 M07/M12 A2987 RMK CF2SC4CI1 SLP134
Loading
Personal Weather Stations






























Interactive Weather Map New forecast layout! Learn more

10-Day Weather Forecast

Advertisements
Track Severe Weather on mobile